Time;durP1;ratioP1;P1;durP2;ratioP2;P2;SDS_P1;SDS_P2;PMS_P1;PMS_P2;Temp;Humidity;BMP_temperature;BMP_pressure;BME280_temperature;BME280_humidity;BME280_pressure;Samples;Min_cycle;Max_cycle;Signal;HPM_P1;HPM_P2
2022/04/17 00:01:53;;;;;;;15.18;6.80;;;11.20;74.50;;;;;;4127545;28;20058;-64
2022/04/17 00:03:54;;;;;;;13.82;7.68;;;11.20;76.90;;;;;;4128637;28;20041;-65
2022/04/17 00:05:54;;;;;;;11.52;7.13;;;11.20;76.30;;;;;;4128811;28;20062;-65
2022/04/17 00:07:55;;;;;;;13.07;6.65;;;11.10;72.70;;;;;;4128679;28;20034;-65
2022/04/17 00:09:56;;;;;;;13.15;7.45;;;11.10;74.20;;;;;;4128255;28;20104;-64
2022/04/17 00:11:56;;;;;;;12.70;7.47;;;11.10;75.20;;;;;;4124862;28;20129;-64
2022/04/17 00:13:59;;;;;;;11.27;7.10;;;11.10;75.80;;;;;;4129905;28;20058;-64
2022/04/17 00:15:59;;;;;;;11.52;7.10;;;11.10;76.10;;;;;;4127429;28;20059;-64
2022/04/17 00:18:00;;;;;;;10.73;6.47;;;11.10;75.40;;;;;;4128478;28;20027;-64
2022/04/17 00:20:01;;;;;;;14.35;7.05;;;11.10;77.60;;;;;;4128328;28;20037;-64
2022/04/17 00:22:01;;;;;;;13.65;7.32;;;11.00;74.80;;;;;;4125975;28;20034;-64
2022/04/17 00:24:02;;;;;;;12.68;7.35;;;11.00;75.40;;;;;;4126647;28;20070;-64
2022/04/17 00:26:03;;;;;;;12.23;7.00;;;11.00;73.30;;;;;;4128222;28;20065;-64
2022/04/17 00:28:04;;;;;;;13.70;7.13;;;11.00;74.90;;;;;;4127501;28;20089;-65
2022/04/17 00:30:06;;;;;;;14.10;8.18;;;10.90;75.00;;;;;;4127575;28;20034;-67
2022/04/17 00:32:07;;;;;;;13.38;7.53;;;10.90;76.90;;;;;;4124193;28;20398;-64
2022/04/17 00:34:08;;;;;;;13.95;7.50;;;11.00;76.70;;;;;;4128347;28;20030;-64
2022/04/17 00:36:09;;;;;;;15.73;8.80;;;10.90;72.40;;;;;;4127808;28;20023;-64
2022/04/17 00:38:10;;;;;;;14.02;7.75;;;10.90;72.90;;;;;;4128068;28;20038;-64
2022/04/17 00:40:10;;;;;;;15.75;8.05;;;10.90;73.80;;;;;;4127173;28;20038;-65
2022/04/17 00:42:11;;;;;;;14.38;8.30;;;10.90;74.70;;;;;;4127756;28;20038;-64
2022/04/17 00:44:12;;;;;;;16.77;8.68;;;10.80;72.80;;;;;;4129477;28;20486;-64
2022/04/17 00:46:14;;;;;;;16.20;8.43;;;10.90;74.90;;;;;;4125664;28;20034;-64
2022/04/17 00:48:14;;;;;;;16.67;8.65;;;10.90;75.30;;;;;;4128912;28;20497;-64
2022/04/17 00:50:15;;;;;;;18.10;8.60;;;10.90;77.90;;;;;;4127590;28;20031;-65
2022/04/17 00:52:16;;;;;;;14.65;7.93;;;10.90;76.80;;;;;;4129014;28;20038;-64
2022/04/17 00:54:19;;;;;;;12.63;7.97;;;10.90;77.00;;;;;;4128921;28;20062;-64
2022/04/17 00:56:21;;;;;;;;;;;10.80;76.60;;;;;;4128037;28;20041;-64
2022/04/17 00:58:22;;;;;;;15.40;8.25;;;10.90;76.20;;;;;;4127286;28;20387;-64
2022/04/17 01:00:23;;;;;;;16.42;8.27;;;10.80;77.20;;;;;;4127353;28;20058;-66
2022/04/17 01:02:23;;;;;;;16.42;8.18;;;10.80;72.80;;;;;;4128978;28;20061;-63
2022/04/17 01:04:24;;;;;;;15.10;8.80;;;10.80;71.80;;;;;;4127475;28;20088;-64
2022/04/17 01:06:28;;;;;;;14.35;7.75;;;10.70;72.20;;;;;;4126844;28;20089;-64
2022/04/17 01:08:29;;;;;;;18.33;9.02;;;10.70;76.20;;;;;;4124505;28;20049;-64
2022/04/17 01:10:31;;;;;;;15.68;8.55;;;10.70;75.30;;;;;;4128753;28;20425;-64
2022/04/17 01:12:31;;;;;;;16.70;8.30;;;10.80;77.10;;;;;;4127245;28;20038;-67
2022/04/17 01:14:34;;;;;;;14.77;8.32;;;10.70;72.10;;;;;;4125740;28;20045;-64
2022/04/17 01:16:36;;;;;;;16.20;8.00;;;10.70;73.60;;;;;;4125618;28;20118;-64
2022/04/17 01:19:04;;;;;;;13.70;7.40;;;10.60;71.40;;;;;;4127106;28;20038;-65
2022/04/17 01:21:08;;;;;;;14.95;7.53;;;10.50;71.20;;;;;;4127523;28;20027;-64
2022/04/17 01:27:47;;;;;;;14.10;7.65;;;10.50;70.30;;;;;;4130480;28;20042;-64
2022/04/17 01:29:48;;;;;;;14.75;7.63;;;10.40;69.00;;;;;;4143005;28;20425;-64
2022/04/17 01:31:48;;;;;;;14.95;7.05;;;10.30;68.50;;;;;;4126587;28;20563;-64
2022/04/17 01:33:49;;;;;;;13.23;7.13;;;10.30;70.20;;;;;;4126359;28;20039;-64
2022/04/17 01:35:50;;;;;;;13.63;6.38;;;10.20;69.50;;;;;;4126707;28;20587;-64
2022/04/17 01:37:50;;;;;;;13.23;6.93;;;10.10;69.70;;;;;;4127681;28;20371;-64
2022/04/17 01:39:51;;;;;;;13.70;6.63;;;10.10;70.60;;;;;;4126671;28;20037;-64
2022/04/17 01:41:53;;;;;;;12.48;6.60;;;10.10;69.50;;;;;;4128409;28;20058;-64
2022/04/17 01:43:53;;;;;;;11.68;5.88;;;10.10;72.90;;;;;;4125398;28;20048;-64
2022/04/17 01:45:54;;;;;;;10.65;5.47;;;10.20;74.30;;;;;;4125819;28;20113;-63
2022/04/17 01:47:55;;;;;;;10.30;5.95;;;10.10;73.40;;;;;;4125539;28;20096;-64
2022/04/17 01:49:56;;;;;;;11.50;5.93;;;10.20;73.70;;;;;;4127546;28;20037;-64
2022/04/17 01:51:57;;;;;;;10.00;5.70;;;10.20;72.80;;;;;;4120431;28;20464;-64
2022/04/17 01:53:58;;;;;;;9.73;5.90;;;10.10;73.80;;;;;;4125932;28;20084;-64
2022/04/17 01:56:02;;;;;;;11.05;5.78;;;10.10;72.30;;;;;;4125696;28;20093;-64
2022/04/17 01:58:02;;;;;;;10.73;5.45;;;10.20;76.80;;;;;;4128548;28;20049;-64
2022/04/17 02:00:03;;;;;;;9.65;4.95;;;10.20;74.60;;;;;;4126670;28;20482;-65
2022/04/17 02:02:04;;;;;;;10.98;6.40;;;10.20;74.80;;;;;;4125899;28;20050;-67
2022/04/17 02:04:07;;;;;;;12.10;6.05;;;10.20;76.50;;;;;;4127996;28;20101;-64
2022/04/17 02:06:07;;;;;;;11.57;6.53;;;10.20;73.90;;;;;;4127214;28;20050;-64
2022/04/17 02:08:08;;;;;;;13.98;6.78;;;10.10;71.50;;;;;;4126734;28;20045;-64
2022/04/17 02:10:09;;;;;;;11.32;6.22;;;10.10;72.50;;;;;;4124947;28;20066;-65
2022/04/17 02:12:09;;;;;;;10.77;6.10;;;10.00;72.90;;;;;;4128631;28;20496;-64
2022/04/17 02:14:11;;;;;;;12.18;6.43;;;10.00;76.30;;;;;;4126414;28;20069;-65
2022/04/17 02:16:11;;;;;;;9.38;4.90;;;9.80;73.80;;;;;;4126171;28;20508;-64
2022/04/17 02:18:13;;;;;;;10.88;5.43;;;9.80;72.10;;;;;;4125409;28;20091;-64
2022/04/17 02:20:14;;;;;;;9.63;5.50;;;9.70;72.10;;;;;;4128028;28;21572;-65
2022/04/17 02:22:14;;;;;;;10.98;5.40;;;9.70;73.00;;;;;;4126633;28;20414;-64
2022/04/17 02:24:15;;;;;;;13.25;5.82;;;9.70;73.70;;;;;;4125617;28;20039;-64
2022/04/17 02:26:18;;;;;;;11.35;5.70;;;9.70;73.50;;;;;;4126358;28;20135;-64
2022/04/17 02:28:19;;;;;;;9.68;5.63;;;9.70;76.50;;;;;;4128411;28;20038;-64
2022/04/17 02:30:19;;;;;;;8.18;4.93;;;9.60;76.60;;;;;;4126121;28;20035;-65
2022/04/17 02:32:20;;;;;;;10.75;5.78;;;9.70;76.90;;;;;;4128509;28;20537;-64
2022/04/17 02:34:21;;;;;;;9.77;5.22;;;9.60;74.00;;;;;;4122162;28;20027;-64
2022/04/17 02:36:22;;;;;;;11.82;5.80;;;9.60;75.10;;;;;;4125410;28;20046;-64
2022/04/17 02:38:23;;;;;;;9.88;4.78;;;9.60;76.20;;;;;;4128637;28;20041;-64
2022/04/17 02:40:23;;;;;;;9.75;5.20;;;9.50;74.10;;;;;;4125747;28;20512;-64
2022/04/17 02:42:24;;;;;;;6.47;4.28;;;9.50;74.60;;;;;;4127495;28;20031;-64
2022/04/17 02:44:24;;;;;;;7.07;4.45;;;9.40;75.40;;;;;;4120163;28;20526;-64
2022/04/17 02:48:44;;;;;;;8.27;4.45;;;9.40;76.70;;;;;;4125839;28;20046;-64
2022/04/17 02:50:45;;;;;;;7.65;4.32;;;9.40;76.30;;;;;;4128849;28;20057;-65
2022/04/17 02:52:46;;;;;;;8.80;4.80;;;9.50;77.70;;;;;;4130546;28;20027;-64
2022/04/17 02:54:47;;;;;;;10.80;5.05;;;9.50;78.90;;;;;;4128836;28;20050;-64
2022/04/17 02:56:48;;;;;;;9.60;5.03;;;9.40;77.60;;;;;;4130535;28;20030;-64
2022/04/17 02:58:50;;;;;;;7.70;4.10;;;9.50;78.00;;;;;;4128756;28;20030;-64
2022/04/17 03:05:44;;;;;;;10.18;4.63;;;9.60;80.60;;;;;;4131613;28;20034;-64
2022/04/17 03:07:44;;;;;;;10.07;4.32;;;9.60;77.20;;;;;;4129349;28;20057;-64
2022/04/17 03:09:45;;;;;;;8.93;4.72;;;9.60;77.40;;;;;;4130139;28;20088;-64
2022/04/17 03:11:45;;;;;;;7.75;4.38;;;9.60;78.20;;;;;;4127852;28;20497;-64
2022/04/17 03:13:48;;;;;;;6.78;4.10;;;9.60;78.50;;;;;;4129026;28;20390;-64
2022/04/17 03:15:48;;;;;;;6.18;3.83;;;9.60;78.80;;;;;;4129287;28;20088;-64
2022/04/17 03:17:49;;;;;;;8.13;3.97;;;9.60;80.30;;;;;;4131262;28;20109;-64
2022/04/17 03:19:52;;;;;;;6.22;3.10;;;9.60;81.30;;;;;;4128909;28;20038;-64
2022/04/17 03:21:53;;;;;;;5.50;3.40;;;9.60;80.30;;;;;;4127783;28;20474;-64
2022/04/17 03:23:54;;;;;;;5.93;3.45;;;9.60;77.80;;;;;;4128750;28;20034;-64
2022/04/17 03:25:54;;;;;;;5.43;3.38;;;9.60;78.80;;;;;;4129142;28;20041;-64
2022/04/17 03:27:55;;;;;;;4.63;3.10;;;9.60;78.10;;;;;;4128728;28;20502;-64
2022/04/17 03:29:56;;;;;;;5.20;3.42;;;9.60;80.20;;;;;;4130678;28;20041;-64
2022/04/17 03:31:57;;;;;;;5.95;3.60;;;9.60;78.00;;;;;;4127687;28;20490;-64
2022/04/17 03:33:58;;;;;;;4.22;3.35;;;9.60;79.90;;;;;;4129520;28;20034;-64
2022/04/17 03:35:58;;;;;;;7.22;3.45;;;9.60;81.60;;;;;;4128699;28;20466;-64
2022/04/17 03:38:00;;;;;;;6.13;3.75;;;9.60;81.90;;;;;;4130110;28;20037;-64
2022/04/17 03:40:01;;;;;;;4.87;3.20;;;9.50;77.50;;;;;;4129797;28;20445;-64
2022/04/17 03:42:01;;;;;;;7.13;3.70;;;9.60;79.30;;;;;;4128244;28;20317;-64
2022/04/17 03:44:03;;;;;;;6.07;3.85;;;9.50;80.50;;;;;;4130197;28;20026;-64
2022/04/17 03:46:04;;;;;;;5.13;3.38;;;9.60;82.30;;;;;;4128973;28;20559;-64
2022/04/17 03:48:05;;;;;;;6.95;4.00;;;9.50;78.60;;;;;;4127603;28;20169;-64
2022/04/17 03:50:07;;;;;;;5.75;3.65;;;9.50;79.30;;;;;;4128691;28;20082;-65
2022/04/17 03:52:07;;;;;;;6.63;3.58;;;9.50;80.80;;;;;;4127872;28;20023;-65
2022/04/17 03:54:08;;;;;;;6.80;3.90;;;9.50;81.40;;;;;;4128495;28;20705;-65
2022/04/17 03:56:09;;;;;;;5.55;3.85;;;9.50;82.50;;;;;;4128486;28;20030;-64
2022/04/17 03:58:09;;;;;;;7.13;4.00;;;9.50;81.40;;;;;;4128330;28;20038;-64
2022/04/17 04:00:12;;;;;;;4.47;3.40;;;9.50;82.00;;;;;;4128415;28;20023;-65
2022/04/17 04:02:13;;;;;;;8.38;4.18;;;9.50;80.10;;;;;;4127244;28;20062;-64
2022/04/17 04:04:17;;;;;;;9.18;3.95;;;9.50;81.60;;;;;;4128865;28;20066;-64
2022/04/17 04:06:18;;;;;;;6.30;3.83;;;9.50;81.70;;;;;;4129576;28;20045;-64
2022/04/17 04:08:19;;;;;;;7.65;4.45;;;9.50;83.00;;;;;;4128753;28;20043;-64
2022/04/17 04:10:19;;;;;;;5.97;3.78;;;9.50;80.60;;;;;;4123867;28;20597;-64
2022/04/17 04:12:20;;;;;;;5.85;3.80;;;9.50;82.30;;;;;;4122446;28;20119;-64
2022/04/17 04:14:21;;;;;;;5.00;3.42;;;9.50;79.90;;;;;;4126427;28;20043;-64
2022/04/17 04:16:22;;;;;;;6.80;3.95;;;9.50;82.40;;;;;;4127708;28;20486;-64
2022/04/17 04:18:22;;;;;;;5.72;3.78;;;9.50;83.60;;;;;;4124568;28;20496;-64
2022/04/17 04:20:23;;;;;;;6.57;3.63;;;9.50;84.90;;;;;;4124410;28;20481;-64
2022/04/17 04:22:24;;;;;;;7.95;4.05;;;9.50;86.20;;;;;;4128523;28;20037;-64
2022/04/17 04:24:26;;;;;;;6.80;4.05;;;9.50;85.40;;;;;;4128920;28;20038;-64
2022/04/17 04:26:26;;;;;;;6.25;3.78;;;9.50;85.60;;;;;;4125997;28;20055;-64
2022/04/17 04:28:33;;;;;;;6.65;3.78;;;9.40;83.50;;;;;;4130112;28;20123;-64
2022/04/17 04:30:33;;;;;;;5.50;3.97;;;9.40;84.10;;;;;;4124871;28;20097;-63
2022/04/17 04:32:34;;;;;;;6.95;3.90;;;9.40;81.00;;;;;;4128527;28;20457;-64
2022/04/17 04:34:35;;;;;;;5.93;3.70;;;9.30;81.60;;;;;;4128115;28;20057;-64
2022/04/17 04:36:35;;;;;;;6.47;3.10;;;9.30;84.90;;;;;;4127385;28;20034;-64
2022/04/17 04:38:36;;;;;;;7.05;3.55;;;9.20;82.00;;;;;;4128560;28;20401;-64
2022/04/17 04:40:37;;;;;;;4.32;3.03;;;9.20;83.60;;;;;;4125354;28;20390;-64
2022/04/17 04:42:37;;;;;;;7.57;3.90;;;9.10;85.00;;;;;;4129900;28;20457;-64
2022/04/17 04:44:38;;;;;;;5.28;3.20;;;9.10;81.00;;;;;;4125113;28;20084;-64
2022/04/17 04:46:39;;;;;;;6.70;3.30;;;9.00;81.10;;;;;;4127538;28;20042;-64
2022/04/17 04:51:00;;;;;;;6.05;3.00;;;8.90;82.50;;;;;;4124710;28;20043;-64
2022/04/17 04:53:01;;;;;;;5.95;2.92;;;8.90;83.70;;;;;;4124253;28;20385;-64
2022/04/17 04:55:05;;;;;;;4.82;2.90;;;8.90;82.30;;;;;;4125574;28;20030;-65
2022/04/17 04:57:07;;;;;;;5.10;2.60;;;8.90;81.60;;;;;;4129407;28;20062;-64
2022/04/17 04:59:09;;;;;;;4.72;3.00;;;8.80;81.90;;;;;;4127490;28;20493;-65
2022/04/17 05:01:10;;;;;;;5.70;3.10;;;8.70;80.50;;;;;;4127223;28;20389;-64
2022/04/17 05:03:10;;;;;;;6.13;2.65;;;8.70;81.50;;;;;;4125518;28;20054;-64
2022/04/17 05:05:11;;;;;;;4.57;2.72;;;8.70;84.40;;;;;;4125698;28;20029;-67
2022/04/17 05:07:12;;;;;;;3.67;2.65;;;8.70;83.70;;;;;;4126530;28;20053;-64
2022/04/17 05:09:13;;;;;;;4.32;2.45;;;8.70;84.10;;;;;;4125704;28;20081;-64
2022/04/17 05:11:14;;;;;;;3.97;2.40;;;8.80;85.00;;;;;;4127437;28;20030;-64
2022/04/17 05:13:15;;;;;;;5.70;3.00;;;8.80;85.50;;;;;;4127762;28;20606;-64
2022/04/17 05:15:15;;;;;;;4.30;2.78;;;8.70;82.20;;;;;;4126803;28;20097;-64
2022/04/17 05:17:16;;;;;;;4.15;2.63;;;8.70;83.40;;;;;;4127512;28;20034;-64
2022/04/17 05:19:35;;;;;;;2.92;2.00;;;8.80;85.60;;;;;;4127894;28;20101;-64
2022/04/17 05:21:35;;;;;;;3.60;2.33;;;8.80;86.40;;;;;;4123949;28;20102;-64
2022/04/17 05:23:37;;;;;;;4.82;2.67;;;8.80;82.50;;;;;;4125376;28;20038;-64
2022/04/17 05:25:37;;;;;;;6.63;2.70;;;8.70;83.10;;;;;;4125936;28;20038;-64
2022/04/17 05:27:38;;;;;;;6.00;2.28;;;8.80;85.20;;;;;;4127100;28;20069;-64
2022/04/17 05:29:40;;;;;;;8.60;2.67;;;8.80;83.90;;;;;;4127056;28;20034;-64
2022/04/17 05:31:40;;;;;;;3.25;2.05;;;8.80;83.30;;;;;;4126747;28;20113;-64
2022/04/17 05:33:41;;;;;;;3.55;2.55;;;8.80;85.80;;;;;;4125321;28;20034;-64
2022/04/17 05:35:41;;;;;;;3.97;2.42;;;8.70;83.90;;;;;;4128142;28;20117;-64
2022/04/17 05:37:42;;;;;;;5.85;2.67;;;8.60;82.80;;;;;;4127522;28;20035;-64
2022/04/17 05:39:42;;;;;;;5.40;2.83;;;8.70;83.50;;;;;;4127796;28;20042;-64
2022/04/17 05:41:44;;;;;;;4.25;2.40;;;8.60;83.30;;;;;;4126914;28;20042;-64
2022/04/17 05:43:45;;;;;;;3.42;2.50;;;8.60;83.40;;;;;;4125754;28;20132;-64
2022/04/17 05:45:48;;;;;;;4.57;2.42;;;8.70;84.50;;;;;;4125748;28;20038;-64
2022/04/17 05:47:49;;;;;;;3.90;2.58;;;8.70;84.40;;;;;;4124714;28;20511;-64
2022/04/17 05:49:49;;;;;;;4.43;2.20;;;8.80;83.20;;;;;;4125613;28;20034;-63
2022/04/17 05:51:51;;;;;;;4.55;2.33;;;8.80;84.10;;;;;;4127442;28;20030;-64
2022/04/17 05:53:51;;;;;;;3.95;2.20;;;8.90;85.40;;;;;;4123300;28;20489;-64
2022/04/17 05:55:52;;;;;;;5.75;2.35;;;8.80;84.40;;;;;;4126287;28;20092;-64
2022/04/17 05:57:53;;;;;;;3.80;2.28;;;8.80;83.00;;;;;;4127790;28;20117;-64
2022/04/17 05:59:54;;;;;;;6.80;2.30;;;8.80;83.10;;;;;;4127037;28;20046;-64
2022/04/17 06:01:54;;;;;;;5.55;2.33;;;8.90;85.50;;;;;;4128602;28;20046;-63
2022/04/17 06:03:55;;;;;;;4.88;2.47;;;9.00;84.10;;;;;;4127060;28;20031;-64
2022/04/17 06:05:55;;;;;;;4.97;2.33;;;9.00;85.30;;;;;;4127313;28;20049;-64
2022/04/17 06:07:56;;;;;;;5.00;2.28;;;9.10;85.00;;;;;;4126171;28;20531;-63
2022/04/17 06:10:04;;;;;;;4.45;2.20;;;9.10;82.70;;;;;;4126662;28;20039;-64
2022/04/17 06:12:04;;;;;;;4.45;2.22;;;9.20;83.50;;;;;;4124511;28;20037;-64
2022/04/17 06:14:05;;;;;;;2.88;2.20;;;9.20;83.20;;;;;;4130578;28;20038;-64
2022/04/17 06:16:06;;;;;;;5.43;2.35;;;9.30;82.80;;;;;;4130265;28;20117;-63
2022/04/17 06:18:07;;;;;;;5.60;2.40;;;9.20;82.90;;;;;;4143490;28;20033;-64
2022/04/17 06:20:11;;;;;;;4.70;2.10;;;9.20;82.60;;;;;;4134624;28;20030;-65
2022/04/17 06:22:12;;;;;;;8.52;2.35;;;9.40;83.10;;;;;;4128066;28;20386;-64
2022/04/17 06:24:13;;;;;;;4.60;1.98;;;9.40;82.20;;;;;;4126270;28;20030;-64
2022/04/17 06:26:13;;;;;;;5.50;2.80;;;9.50;82.10;;;;;;4126977;28;20387;-64
2022/04/17 06:28:14;;;;;;;3.35;2.22;;;9.50;81.20;;;;;;4127284;28;20068;-64
2022/04/17 06:30:19;;;;;;;4.18;2.10;;;9.60;81.80;;;;;;4125953;28;20034;-64
2022/04/17 06:32:20;;;;;;;4.43;2.08;;;9.60;81.20;;;;;;4127621;28;20046;-64
2022/04/17 06:34:21;;;;;;;5.70;2.20;;;9.70;81.80;;;;;;4133973;28;20421;-63
2022/04/17 06:36:21;;;;;;;2.75;1.98;;;9.90;82.30;;;;;;4127855;28;20030;-64
2022/04/17 06:38:23;;;;;;;3.63;1.90;;;10.00;81.70;;;;;;4126898;28;20065;-64
2022/04/17 06:40:26;;;;;;;5.13;2.03;;;10.30;84.20;;;;;;4124869;28;20090;-64
2022/04/17 06:42:27;;;;;;;4.28;2.05;;;10.70;82.50;;;;;;4129187;28;20477;-64
2022/04/17 06:44:27;;;;;;;4.03;1.90;;;11.00;78.00;;;;;;4142384;28;20042;-64
2022/04/17 06:46:28;;;;;;;3.15;1.90;;;11.30;77.00;;;;;;4141543;28;20042;-64
2022/04/17 06:48:28;;;;;;;3.22;1.92;;;11.70;77.90;;;;;;4131736;28;20050;-64
2022/04/17 06:50:29;;;;;;;2.65;1.70;;;12.00;76.50;;;;;;4124831;28;20385;-64
2022/04/17 06:52:29;;;;;;;3.42;2.10;;;12.30;75.20;;;;;;4128294;28;20186;-64
2022/04/17 06:54:30;;;;;;;3.45;1.92;;;12.60;73.70;;;;;;4126552;28;20036;-64
2022/04/17 06:56:31;;;;;;;2.50;1.85;;;13.00;72.90;;;;;;4126046;28;20516;-64
2022/04/17 06:58:31;;;;;;;2.70;1.73;;;13.40;72.30;;;;;;4126088;28;20077;-65
2022/04/17 07:00:32;;;;;;;2.88;1.60;;;13.60;69.20;;;;;;4122552;28;20035;-64
2022/04/17 07:02:33;;;;;;;5.95;1.60;;;13.70;68.30;;;;;;4127044;28;20042;-65
2022/04/17 07:04:33;;;;;;;1.85;1.42;;;14.00;68.20;;;;;;4128489;28;20034;-66
2022/04/17 07:06:34;;;;;;;4.03;1.55;;;14.20;65.40;;;;;;4126557;28;20031;-64
2022/04/17 07:08:34;;;;;;;5.53;1.75;;;14.40;67.80;;;;;;4126791;28;20041;-65
2022/04/17 07:10:38;;;;;;;1.90;1.60;;;14.60;67.50;;;;;;4124681;28;20035;-65
2022/04/17 07:12:39;;;;;;;3.83;2.03;;;14.80;64.30;;;;;;4128779;28;20042;-66
2022/04/17 07:14:40;;;;;;;3.70;1.90;;;14.70;63.50;;;;;;4126693;28;20037;-63
2022/04/17 07:16:43;;;;;;;2.40;1.38;;;14.70;63.40;;;;;;4124028;28;20034;-64
2022/04/17 07:18:44;;;;;;;4.20;2.05;;;14.90;65.00;;;;;;4127359;28;20034;-64
2022/04/17 07:20:45;;;;;;;2.72;1.30;;;15.00;65.50;;;;;;4126070;28;20104;-64
2022/04/17 07:22:47;;;;;;;4.10;2.03;;;15.20;64.60;;;;;;4142717;28;20042;-65
2022/04/17 07:24:53;;;;;;;4.55;1.75;;;15.30;63.60;;;;;;4125267;28;20682;-65
2022/04/17 07:26:55;;;;;;;2.42;1.30;;;15.00;62.30;;;;;;4125773;28;20038;-65
2022/04/17 07:28:55;;;;;;;2.67;1.40;;;15.20;65.60;;;;;;4126437;28;20031;-64
2022/04/17 07:30:56;;;;;;;4.80;1.85;;;15.30;63.90;;;;;;4132062;28;20430;-65
2022/04/17 07:32:59;;;;;;;3.05;1.67;;;15.20;63.40;;;;;;4128766;28;20023;-65
2022/04/17 07:34:59;;;;;;;;;;;15.20;63.30;;;;;;4129176;28;20046;-65
2022/04/17 07:37:00;;;;;;;2.65;1.55;;;15.10;62.30;;;;;;4126638;28;19964;-65
2022/04/17 07:39:00;;;;;;;2.60;1.60;;;15.10;64.40;;;;;;4130053;28;20504;-65
2022/04/17 07:41:03;;;;;;;4.03;1.50;;;15.10;62.00;;;;;;4124573;28;20359;-64
2022/04/17 07:43:05;;;;;;;4.97;1.70;;;15.20;63.50;;;;;;4127560;28;20042;-65
2022/04/17 07:45:06;;;;;;;4.00;1.67;;;15.30;64.10;;;;;;4130805;28;20034;-66
2022/04/17 07:47:09;;;;;;;3.88;2.10;;;15.00;60.90;;;;;;4128793;28;20050;-65
2022/04/17 07:49:10;;;;;;;2.90;1.77;;;14.90;60.60;;;;;;4130506;28;20089;-65
2022/04/17 07:51:11;;;;;;;1.83;1.25;;;14.80;61.10;;;;;;4127829;28;20370;-64
2022/04/17 07:53:11;;;;;;;3.67;1.42;;;14.80;61.40;;;;;;4127247;28;20038;-65
2022/04/17 07:55:14;;;;;;;3.05;1.48;;;14.70;60.70;;;;;;4128266;28;20080;-65
2022/04/17 07:57:15;;;;;;;4.43;1.70;;;14.80;61.70;;;;;;4127571;28;20030;-64
2022/04/17 07:59:15;;;;;;;2.20;1.52;;;14.70;62.40;;;;;;4128445;28;20497;-65
2022/04/17 08:01:16;;;;;;;3.53;1.67;;;14.50;61.30;;;;;;4127495;28;20414;-65
2022/04/17 08:05:39;;;;;;;4.82;1.85;;;14.50;61.20;;;;;;4138886;28;20132;-65
2022/04/17 08:07:40;;;;;;;3.30;1.80;;;14.40;61.00;;;;;;4142977;28;20385;-66
2022/04/17 08:09:40;;;;;;;3.60;1.73;;;14.50;61.70;;;;;;4129168;28;20030;-65
2022/04/17 08:11:41;;;;;;;3.97;1.58;;;14.50;62.90;;;;;;4128728;28;21432;-65
2022/04/17 08:13:42;;;;;;;4.15;1.90;;;14.60;62.30;;;;;;4129040;28;20447;-64
2022/04/17 08:15:43;;;;;;;4.72;2.15;;;14.80;63.50;;;;;;4129600;28;20429;-64
2022/04/17 08:17:44;;;;;;;5.07;1.88;;;14.70;61.80;;;;;;4128430;28;20069;-64
2022/04/17 08:19:44;;;;;;;4.65;1.85;;;14.80;63.00;;;;;;4130148;28;20458;-65
2022/04/17 08:21:45;;;;;;;3.08;1.73;;;14.80;62.40;;;;;;4127560;28;20042;-65
2022/04/17 08:23:45;;;;;;;4.93;2.05;;;14.80;62.10;;;;;;4129321;28;20105;-65
2022/04/17 08:25:49;;;;;;;3.83;2.08;;;14.80;63.00;;;;;;4126435;28;20038;-65
2022/04/17 08:27:52;;;;;;;3.97;1.88;;;14.70;60.50;;;;;;4127969;28;20517;-65
2022/04/17 08:29:53;;;;;;;2.60;1.95;;;14.70;62.50;;;;;;4128479;28;20133;-64
2022/04/17 08:31:53;;;;;;;2.67;1.50;;;14.80;62.60;;;;;;4129843;28;20030;-64
2022/04/17 08:33:54;;;;;;;2.42;1.70;;;14.80;63.10;;;;;;4125822;28;20030;-64
2022/04/17 08:35:55;;;;;;;3.10;1.65;;;14.90;63.50;;;;;;4125372;28;20150;-66
2022/04/17 08:37:59;;;;;;;3.60;1.70;;;15.00;61.70;;;;;;4127691;28;20042;-64
2022/04/17 08:39:59;;;;;;;3.72;1.80;;;15.00;60.80;;;;;;4126801;28;20053;-65
2022/04/17 08:42:02;;;;;;;2.72;1.67;;;14.70;60.60;;;;;;4124368;28;20062;-64
2022/04/17 08:44:03;;;;;;;2.85;1.85;;;14.80;61.90;;;;;;4128242;28;20041;-67
2022/04/17 08:46:03;;;;;;;2.53;1.58;;;14.90;61.30;;;;;;4127106;28;20034;-65
2022/04/17 08:48:05;;;;;;;2.40;1.55;;;14.90;61.50;;;;;;4127146;28;20044;-64
2022/04/17 08:50:07;;;;;;;2.42;1.63;;;14.80;60.90;;;;;;4127121;28;20100;-65
2022/04/17 08:52:10;;;;;;;;;;;14.90;60.90;;;;;;4128089;28;20039;-65
2022/04/17 08:54:13;;;;;;;3.42;1.65;;;14.80;60.60;;;;;;4127388;28;19992;-65
2022/04/17 08:56:13;;;;;;;4.22;1.75;;;14.90;61.30;;;;;;4122809;28;20038;-64
2022/04/17 08:58:14;;;;;;;4.05;1.90;;;14.90;61.80;;;;;;4126860;28;20588;-64
2022/04/17 09:00:20;;;;;;;3.45;1.67;;;14.90;60.30;;;;;;4123374;28;20059;-65
2022/04/17 09:02:21;;;;;;;2.72;1.48;;;14.80;60.80;;;;;;4129361;28;20145;-64
2022/04/17 09:04:22;;;;;;;3.70;1.50;;;15.00;61.20;;;;;;4123172;28;20074;-64
2022/04/17 09:06:22;;;;;;;3.47;1.52;;;15.10;60.90;;;;;;4127217;28;20046;-64
2022/04/17 09:08:23;;;;;;;2.60;1.38;;;15.20;62.50;;;;;;4128616;28;20034;-64
2022/04/17 09:10:29;;;;;;;3.58;1.70;;;15.30;62.60;;;;;;4127212;28;20215;-64
2022/04/17 09:12:29;;;;;;;2.55;1.65;;;15.30;59.40;;;;;;4128552;28;20041;-64
2022/04/17 09:14:30;;;;;;;2.38;1.48;;;15.40;59.40;;;;;;4126117;28;20451;-66
2022/04/17 09:16:35;;;;;;;3.20;1.60;;;15.40;59.50;;;;;;4125619;28;20120;-64
2022/04/17 09:18:38;;;;;;;2.53;1.77;;;15.50;59.40;;;;;;4128357;28;20027;-64
2022/04/17 09:20:45;;;;;;;4.13;1.73;;;15.70;59.30;;;;;;4127726;28;20034;-65
2022/04/17 09:22:51;;;;;;;3.03;1.50;;;15.60;60.20;;;;;;4126856;28;20045;-64
2022/04/17 09:24:51;;;;;;;5.32;2.08;;;15.70;59.60;;;;;;4128761;28;20054;-64
2022/04/17 09:26:59;;;;;;;1.75;1.17;;;15.80;60.70;;;;;;4124262;28;20088;-64
2022/04/17 09:28:59;;;;;;;2.75;1.77;;;15.90;60.00;;;;;;4125480;28;20097;-64
2022/04/17 09:31:01;;;;;;;4.38;1.85;;;16.00;62.20;;;;;;4124475;28;20054;-64
2022/04/17 09:33:09;;;;;;;5.95;2.13;;;16.10;61.30;;;;;;4126432;28;20450;-64
2022/04/17 09:35:10;;;;;;;4.18;1.90;;;16.20;60.20;;;;;;4123046;28;21148;-65
2022/04/17 09:37:15;;;;;;;2.97;1.83;;;16.20;59.00;;;;;;4122583;28;20042;-64
2022/04/17 09:39:16;;;;;;;4.03;1.70;;;16.10;58.00;;;;;;4127760;28;20040;-64
2022/04/17 09:41:19;;;;;;;3.85;1.92;;;16.20;59.10;;;;;;4134547;28;20053;-64
2022/04/17 09:43:19;;;;;;;3.05;1.88;;;16.30;59.50;;;;;;4139180;28;20393;-65
2022/04/17 09:45:20;;;;;;;2.83;1.70;;;16.40;63.50;;;;;;4119814;28;20077;-65
2022/04/17 09:47:24;;;;;;;2.72;1.65;;;16.50;60.00;;;;;;4126758;28;20474;-64
2022/04/17 09:49:25;;;;;;;3.85;1.88;;;16.60;60.40;;;;;;4125487;28;20152;-64
2022/04/17 09:51:27;;;;;;;3.35;1.65;;;16.50;57.20;;;;;;4125166;28;20030;-64
2022/04/17 09:53:32;;;;;;;;;;;16.60;57.60;;;;;;4126705;28;20149;-64
2022/04/17 09:55:38;;;;;;;4.72;1.63;;;16.70;59.30;;;;;;4126460;28;19972;-65
2022/04/17 09:57:40;;;;;;;4.47;1.60;;;16.60;56.90;;;;;;4123540;28;20461;-65
2022/04/17 09:59:41;;;;;;;4.18;1.95;;;16.70;58.20;;;;;;4125949;28;20383;-65
2022/04/17 10:01:44;;;;;;;4.28;1.90;;;16.70;57.10;;;;;;4127359;28;20177;-65
2022/04/17 10:03:46;;;;;;;3.67;1.95;;;16.60;56.40;;;;;;4127385;28;20040;-65
2022/04/17 10:05:46;;;;;;;6.32;2.60;;;16.70;57.20;;;;;;4127599;28;20145;-64
2022/04/17 10:07:48;;;;;;;3.40;1.92;;;16.70;56.20;;;;;;4126848;28;20042;-65
2022/04/17 10:09:49;;;;;;;3.67;1.83;;;16.70;55.10;;;;;;4125786;28;20097;-64
2022/04/17 10:11:51;;;;;;;3.55;1.90;;;16.80;56.40;;;;;;4128501;28;20526;-64
2022/04/17 10:13:52;;;;;;;4.13;1.95;;;16.90;57.40;;;;;;4127345;28;20034;-64
2022/04/17 10:15:58;;;;;;;5.22;2.13;;;17.00;58.80;;;;;;4124264;28;20046;-64
2022/04/17 10:18:02;;;;;;;4.03;2.00;;;16.70;55.50;;;;;;4130349;28;20069;-65
2022/04/17 10:20:08;;;;;;;7.80;2.35;;;17.00;57.90;;;;;;4126605;28;20118;-65
2022/04/17 10:22:12;;;;;;;2.53;1.42;;;17.00;55.80;;;;;;4128026;28;20200;-64
2022/04/17 10:24:14;;;;;;;2.50;1.55;;;17.10;56.80;;;;;;4126612;28;20126;-64
2022/04/17 10:26:17;;;;;;;3.53;1.98;;;17.20;59.70;;;;;;4124278;28;20093;-65
2022/04/17 10:28:19;;;;;;;4.32;2.15;;;17.30;57.00;;;;;;4126846;28;20042;-64
2022/04/17 10:30:26;;;;;;;2.95;1.58;;;17.40;56.00;;;;;;4127136;28;20030;-64
2022/04/17 10:32:44;;;;;;;4.70;2.10;;;17.50;56.50;;;;;;4127929;28;20034;-65
2022/04/17 10:34:53;;;;;;;3.00;1.67;;;17.40;56.00;;;;;;4124759;28;20031;-65
2022/04/17 10:37:26;;;;;;;3.28;1.83;;;17.50;55.60;;;;;;4123462;28;20207;-65
2022/04/17 10:39:36;;;;;;;4.93;2.05;;;17.50;55.70;;;;;;4107003;28;20045;-65
2022/04/17 10:41:38;;;;;;;4.93;1.70;;;17.50;55.90;;;;;;4127498;28;20092;-65
2022/04/17 10:43:48;;;;;;;3.15;1.83;;;17.50;55.10;;;;;;4125676;28;20041;-64
2022/04/17 10:46:08;;;;;;;2.78;2.00;;;17.50;56.80;;;;;;4124607;28;20034;-65
2022/04/17 10:48:12;;;;;;;4.32;2.10;;;17.60;56.70;;;;;;4124436;28;20394;-65
2022/04/17 10:50:13;;;;;;;3.85;1.65;;;17.50;53.10;;;;;;4124529;28;20457;-65
2022/04/17 10:52:27;;;;;;;2.97;1.50;;;17.40;53.70;;;;;;4127280;28;20034;-65
2022/04/17 10:54:47;;;;;;;2.72;1.27;;;17.60;54.30;;;;;;4126863;28;20084;-65